Аэропорт: Гумрак. Волгоград

ICAO: URWW

METAR:
2022-06-26 10:30:00
URWW 261030Z 05009MPS CAVOK 30/11 Q1013 R06/010070 NOSIG
METAR:
2022-06-26 07:57:00
TAF URWW 260757Z 2609/2618 06008G13MPS 9999 SCT040CB TEMPO 2609/2618 03011G16MPS PROB40 TEMPO 2609/2618 -TSRAGR